Terminal Aerodrome Forecast
Issued by NWS

Home | Current Version | Previous Version | Graphics & Text | Print | Product List | Glossary On
Versions: 1 2 3 4 5 6 7 8 9 10 11 12 13 14 15 16 17 18
562
FTUS43 KDLH 220536
TAFHIB
TAF
KHIB 220536Z 2206/2306 25007KT P6SM SCT020 BKN035
     FM221300 25008KT P6SM SCT100
     FM221600 26011G17KT P6SM SCT200
     FM230000 20007KT P6SM SCT150
     FM230400 18006KT P6SM BKN060=

USA.gov is the U.S. government's official web portal to all federal, state and local government web resources and services.